Time;durP1;ratioP1;P1;durP2;ratioP2;P2;SDS_P1;SDS_P2;PMS_P1;PMS_P2;Temp;Humidity;BMP_temperature;BMP_pressure;BME280_temperature;BME280_humidity;BME280_pressure;Samples;Min_cycle;Max_cycle;Signal;HPM_P1;HPM_P2
2023/03/18 00:01:02;;;;;;;19.37;2.47;;;;;;;12.20;nan;99590.09;4994512;28;20506;-77
2023/03/18 00:03:32;;;;;;;20.17;2.33;;;;;;;12.19;nan;99576.97;4979100;28;20365;-76
2023/03/18 00:06:15;;;;;;;20.33;2.10;;;;;;;12.18;nan;99585.78;5000702;28;20176;-76
2023/03/18 00:08:42;;;;;;;20.90;4.00;;;;;;;12.29;nan;99583.75;4995742;28;20092;-76
2023/03/18 00:11:10;;;;;;;26.95;2.92;;;;;;;12.29;nan;99572.31;4998939;28;20073;-76
2023/03/18 00:13:36;;;;;;;16.57;2.50;;;;;;;12.28;nan;99581.16;4997269;28;20022;-76
2023/03/18 00:16:03;;;;;;;27.15;4.25;;;;;;;12.38;nan;99595.00;4995959;28;20030;-76
2023/03/18 00:18:29;;;;;;;44.05;9.57;;;;;;;12.35;nan;99582.78;4997057;28;20041;-76
2023/03/18 00:20:54;;;;;;;35.90;8.13;;;;;;;12.37;nan;99585.34;4996815;28;20026;-76
2023/03/18 00:23:21;;;;;;;13.60;2.40;;;;;;;12.33;nan;99581.94;4997255;28;20087;-77
2023/03/18 00:25:47;;;;;;;17.75;2.63;;;;;;;12.37;nan;99585.34;4997224;28;20030;-76
2023/03/18 00:28:13;;;;;;;9.73;1.33;;;;;;;12.38;nan;99581.81;4997337;28;20080;-77
2023/03/18 00:30:40;;;;;;;19.17;2.23;;;;;;;12.42;nan;99578.19;5003061;28;20029;-76
2023/03/18 00:33:06;;;;;;;15.35;2.20;;;;;;;12.44;nan;99593.09;4996117;28;20117;-76
2023/03/18 00:35:32;;;;;;;10.13;1.45;;;;;;;12.45;nan;99599.28;4996813;28;20030;-76
2023/03/18 00:37:57;;;;;;;11.90;1.80;;;;;;;12.38;nan;99592.38;4996784;28;20018;-76
2023/03/18 00:40:29;;;;;;;20.38;1.83;;;;;;;12.48;nan;99580.72;4996322;28;20022;-77
2023/03/18 00:43:06;;;;;;;14.30;1.73;;;;;;;12.47;nan;99573.69;4997161;28;20042;-76
2023/03/18 00:45:35;;;;;;;13.07;1.70;;;;;;;12.53;nan;99568.28;4977733;28;20051;-76
2023/03/18 00:48:01;;;;;;;15.20;2.03;;;;;;;12.48;nan;99578.94;4977287;28;20022;-76
2023/03/18 00:50:27;;;;;;;16.17;1.90;;;;;;;12.49;nan;99574.53;4993498;28;20034;-76
2023/03/18 00:52:53;;;;;;;15.38;1.98;;;;;;;12.42;nan;99579.06;4995281;28;20030;-77
2023/03/18 00:55:19;;;;;;;14.35;1.83;;;;;;;12.48;nan;99578.94;4997578;28;20034;-77
2023/03/18 00:57:45;;;;;;;15.80;1.43;;;;;;;12.51;nan;99567.44;4996708;28;20037;-76
2023/03/18 01:00:11;;;;;;;15.43;1.90;;;;;;;12.52;nan;99587.66;4995246;28;20494;-77
2023/03/18 01:02:37;;;;;;;15.23;2.42;;;;;;;12.49;nan;99578.03;4982043;28;20046;-76
2023/03/18 01:05:03;;;;;;;10.03;1.27;;;;;;;12.56;nan;99578.75;4996822;28;20022;-77
2023/03/18 01:07:28;;;;;;;14.25;1.55;;;;;;;12.58;nan;99569.03;4995440;28;20368;-76
2023/03/18 01:09:54;;;;;;;11.33;2.10;;;;;;;12.55;nan;99577.03;4986962;28;20030;-76
2023/03/18 01:12:19;;;;;;;11.50;1.35;;;;;;;12.48;nan;99576.28;5003514;28;20545;-76
2023/03/18 01:14:45;;;;;;;16.10;2.50;;;;;;;12.48;nan;99573.66;4998750;28;20514;-76
2023/03/18 01:17:11;;;;;;;13.52;1.80;;;;;;;12.54;nan;99558.56;5000442;28;20494;-76
2023/03/18 01:19:37;;;;;;;13.40;1.63;;;;;;;12.55;nan;99574.38;5000309;28;20034;-76
2023/03/18 01:22:03;;;;;;;14.10;1.92;;;;;;;12.46;nan;99569.31;5000373;28;20045;-76
2023/03/18 01:24:28;;;;;;;14.80;1.93;;;;;;;12.37;nan;99570.41;5000254;28;20498;-76
2023/03/18 01:26:54;;;;;;;12.88;1.70;;;;;;;12.38;nan;99571.25;5000708;28;20037;-76
2023/03/18 01:29:21;;;;;;;11.90;1.90;;;;;;;12.43;nan;99579.97;5004394;28;20026;-76
2023/03/18 01:31:47;;;;;;;13.70;1.80;;;;;;;12.43;nan;99574.69;5001684;28;20106;-77
2023/03/18 01:34:13;;;;;;;9.55;1.40;;;;;;;12.40;nan;99574.72;4999790;28;20118;-76
2023/03/18 01:36:39;;;;;;;18.60;2.17;;;;;;;12.43;nan;99580.81;5000152;28;20121;-76
2023/03/18 01:39:05;;;;;;;16.25;1.88;;;;;;;12.48;nan;99583.34;4984030;28;20039;-76
2023/03/18 01:41:31;;;;;;;16.40;2.38;;;;;;;12.44;nan;99576.41;4998887;28;20030;-76
2023/03/18 01:43:57;;;;;;;17.47;1.90;;;;;;;12.41;nan;99565.91;4985722;28;20089;-76
2023/03/18 01:46:44;;;;;;;15.10;1.73;;;;;;;12.47;nan;99565.78;4998809;28;20029;-76
2023/03/18 01:49:17;;;;;;;11.88;1.60;;;;;;;12.58;nan;99569.03;4989821;28;20027;-76
2023/03/18 01:51:49;;;;;;;17.60;1.87;;;;;;;12.57;nan;99563.78;5002329;28;20042;-76
2023/03/18 01:54:15;;;;;;;14.65;1.50;;;;;;;12.64;nan;99578.59;4999726;28;20026;-76
2023/03/18 01:56:42;;;;;;;13.95;1.63;;;;;;;12.65;nan;99559.19;4998900;28;20446;-76
2023/03/18 01:59:10;;;;;;;18.95;1.92;;;;;;;12.63;nan;99561.84;4996728;28;20487;-76
2023/03/18 02:01:52;;;;;;;16.58;1.80;;;;;;;12.64;nan;99570.66;4994982;28;20577;-76
2023/03/18 02:04:22;;;;;;;13.97;2.10;;;;;;;12.72;nan;99573.13;4993728;28;20034;-76
2023/03/18 02:06:47;;;;;;;13.70;1.83;;;;;;;12.74;nan;99571.31;4998421;28;20113;-76
2023/03/18 02:09:13;;;;;;;14.93;1.67;;;;;;;12.74;nan;99573.94;4998643;28;20049;-76
2023/03/18 02:11:42;;;;;;;14.30;1.60;;;;;;;12.73;nan;99577.50;5003837;28;20109;-77
2023/03/18 02:14:12;;;;;;;17.00;1.63;;;;;;;12.68;nan;99567.03;4999520;28;20554;-76
2023/03/18 02:16:45;;;;;;;22.27;1.93;;;;;;;12.73;nan;99578.34;4999649;28;20034;-76
2023/03/18 02:19:50;;;;;;;12.88;1.60;;;;;;;12.74;nan;99582.72;4999383;28;20041;-76
2023/03/18 02:22:25;;;;;;;13.43;1.58;;;;;;;12.87;nan;99615.00;4998137;28;20045;-76
2023/03/18 02:24:59;;;;;;;14.45;1.70;;;;;;;12.96;nan;99636.84;4999091;28;20026;-77
2023/03/18 02:27:28;;;;;;;14.27;1.67;;;;;;;12.98;nan;99654.38;4998610;28;20018;-76
2023/03/18 02:30:01;;;;;;;14.40;1.60;;;;;;;13.01;nan;99664.88;5004935;28;20034;-77
2023/03/18 02:32:29;;;;;;;16.23;1.92;;;;;;;13.05;nan;99673.63;4998929;28;20061;-76
2023/03/18 02:34:55;;;;;;;11.77;2.15;;;;;;;13.09;nan;99663.84;4998860;28;20179;-77
2023/03/18 02:37:21;;;;;;;11.48;1.65;;;;;;;13.12;nan;99669.91;4979553;28;20019;-76
2023/03/18 02:39:47;;;;;;;11.50;1.53;;;;;;;13.14;nan;99678.69;4979532;28;20030;-77
2023/03/18 02:42:13;;;;;;;17.13;1.60;;;;;;;13.18;nan;99685.66;4996602;28;20026;-77
2023/03/18 02:44:42;;;;;;;13.73;1.80;;;;;;;13.19;nan;99686.50;4998916;28;20402;-76
2023/03/18 02:47:15;;;;;;;12.23;1.80;;;;;;;13.20;nan;99681.19;4998664;28;20300;-76
2023/03/18 02:49:41;;;;;;;14.77;1.50;;;;;;;13.15;nan;99677.78;5004217;28;20087;-77
2023/03/18 02:52:07;;;;;;;19.13;2.20;;;;;;;13.04;nan;99675.41;4999078;28;20026;-77
2023/03/18 02:54:32;;;;;;;17.97;1.70;;;;;;;13.09;nan;99674.44;4999301;28;20109;-77
2023/03/18 02:56:58;;;;;;;14.43;1.70;;;;;;;13.04;nan;99678.06;4997635;28;20486;-76
2023/03/18 02:59:24;;;;;;;15.18;1.98;;;;;;;13.07;nan;99677.09;4995917;28;20018;-76
2023/03/18 03:01:52;;;;;;;12.77;1.83;;;;;;;13.06;nan;99673.59;4992698;28;20074;-76
2023/03/18 03:04:19;;;;;;;12.52;1.55;;;;;;;13.07;nan;99674.44;4992554;28;20050;-76
2023/03/18 03:06:45;;;;;;;16.10;1.70;;;;;;;13.05;nan;99673.63;4997476;28;20101;-77
2023/03/18 03:09:14;;;;;;;17.10;1.77;;;;;;;13.04;nan;99664.84;4997484;28;20149;-76
2023/03/18 03:11:41;;;;;;;12.50;1.70;;;;;;;13.06;nan;99664.78;5001009;28;20049;-76
2023/03/18 03:14:08;;;;;;;13.75;1.45;;;;;;;13.01;nan;99662.25;4998421;28;20386;-76
2023/03/18 03:16:33;;;;;;;10.85;1.50;;;;;;;13.05;nan;99657.75;4998169;28;20037;-76
2023/03/18 03:18:59;;;;;;;12.30;1.87;;;;;;;13.04;nan;99671.88;4998149;28;20027;-76
2023/03/18 03:21:25;;;;;;;15.82;1.80;;;;;;;13.06;nan;99670.06;4998048;28;20084;-76
2023/03/18 03:23:51;;;;;;;16.00;1.97;;;;;;;13.06;nan;99675.34;4998027;28;20022;-76
2023/03/18 03:26:17;;;;;;;16.98;1.70;;;;;;;13.10;nan;99671.72;4997989;28;20053;-76
2023/03/18 03:28:42;;;;;;;15.13;1.40;;;;;;;13.10;nan;99661.16;4998133;28;20037;-76
2023/03/18 03:31:09;;;;;;;15.23;1.70;;;;;;;13.06;nan;99654.22;5004535;28;20070;-77
2023/03/18 03:33:40;;;;;;;17.02;1.42;;;;;;;12.97;nan;99639.44;4981977;28;20070;-77
2023/03/18 03:36:08;;;;;;;11.57;1.60;;;;;;;12.88;nan;99624.66;4979920;28;20026;-77
2023/03/18 03:38:33;;;;;;;12.18;1.40;;;;;;;12.83;nan;99623.06;4979697;28;20037;-76
2023/03/18 03:40:59;;;;;;;11.70;1.47;;;;;;;12.85;nan;99623.88;4987533;28;20030;-76
2023/03/18 03:43:24;;;;;;;15.27;1.73;;;;;;;12.76;nan;99619.69;5001104;28;20437;-76
2023/03/18 03:45:49;;;;;;;15.40;2.03;;;;;;;12.74;nan;99627.63;5000987;28;20027;-77
2023/03/18 03:48:15;;;;;;;14.60;1.60;;;;;;;12.72;nan;99628.59;4999806;28;20154;-76
2023/03/18 03:50:40;;;;;;;15.67;1.57;;;;;;;12.69;nan;99644.53;5005463;28;20062;-77
2023/03/18 03:53:07;;;;;;;15.97;1.53;;;;;;;12.75;nan;99637.31;5000871;28;20023;-77
2023/03/18 03:55:32;;;;;;;12.20;1.45;;;;;;;12.77;nan;99639.91;5009340;28;20390;-76
2023/03/18 03:58:01;;;;;;;13.30;1.57;;;;;;;12.80;nan;99631.91;5003057;28;20042;-76
2023/03/18 04:00:27;;;;;;;9.68;1.40;;;;;;;12.77;nan;99635.47;4997890;28;20026;-76
2023/03/18 04:02:53;;;;;;;10.93;1.40;;;;;;;12.73;nan;99635.63;4984587;28;20114;-77
2023/03/18 04:05:21;;;;;;;15.40;1.52;;;;;;;12.79;nan;99646.03;5001569;28;20056;-77
2023/03/18 04:07:47;;;;;;;12.80;1.35;;;;;;;12.74;nan;99648.78;5000770;28;20046;-77
2023/03/18 04:10:15;;;;;;;16.83;1.60;;;;;;;12.71;nan;99648.84;4999531;28;20025;-77
2023/03/18 04:12:41;;;;;;;12.02;1.52;;;;;;;12.72;nan;99650.59;5004317;28;20026;-77
2023/03/18 04:15:08;;;;;;;14.48;1.33;;;;;;;12.80;nan;99653.06;5000955;28;20026;-77
2023/03/18 04:17:34;;;;;;;13.43;1.70;;;;;;;12.76;nan;99652.25;5000207;28;20029;-76
2023/03/18 04:20:00;;;;;;;13.27;1.40;;;;;;;12.76;nan;99664.59;5000507;28;20034;-78
2023/03/18 04:22:25;;;;;;;11.52;1.30;;;;;;;12.77;nan;99658.41;5000656;28;20133;-76
2023/03/18 04:24:51;;;;;;;13.93;1.40;;;;;;;12.78;nan;99661.03;5000364;28;20057;-76
2023/03/18 04:27:17;;;;;;;18.00;1.83;;;;;;;12.78;nan;99670.72;5000206;28;20023;-77
2023/03/18 04:29:43;;;;;;;12.75;1.70;;;;;;;12.82;nan;99667.09;5004858;28;20030;-77
2023/03/18 04:32:09;;;;;;;16.47;1.73;;;;;;;12.78;nan;99665.44;5000632;28;20494;-76
2023/03/18 04:34:35;;;;;;;13.73;1.40;;;;;;;12.72;nan;99660.31;4998967;28;20018;-77
2023/03/18 04:37:02;;;;;;;14.90;1.58;;;;;;;12.81;nan;99659.22;5000299;28;20084;-78
2023/03/18 04:39:28;;;;;;;10.32;1.50;;;;;;;12.74;nan;99658.50;4996059;28;20405;-76
2023/03/18 04:41:55;;;;;;;15.87;1.50;;;;;;;12.74;nan;99659.34;4999032;28;20101;-76
2023/03/18 04:44:21;;;;;;;13.48;1.42;;;;;;;12.74;nan;99659.34;4997351;28;20022;-77
2023/03/18 04:46:47;;;;;;;17.38;1.90;;;;;;;12.72;nan;99650.59;4992587;28;20045;-77
2023/03/18 04:49:13;;;;;;;12.37;1.30;;;;;;;12.66;nan;99657.78;4981003;28;20070;-76
2023/03/18 04:51:38;;;;;;;12.87;1.40;;;;;;;12.64;nan;99653.41;5002801;28;20518;-77
2023/03/18 04:54:05;;;;;;;10.90;1.77;;;;;;;12.73;nan;99651.47;4999777;28;20266;-77
2023/03/18 04:56:31;;;;;;;15.30;1.65;;;;;;;12.67;nan;99654.25;5000899;28;20109;-77
2023/03/18 04:58:56;;;;;;;15.02;2.47;;;;;;;12.68;nan;99664.78;4999579;28;20073;-77
2023/03/18 05:01:22;;;;;;;13.13;1.67;;;;;;;12.68;nan;99664.78;4997453;28;20062;-77
2023/03/18 05:03:47;;;;;;;9.43;1.53;;;;;;;12.67;nan;99667.47;4987641;28;20076;-76
2023/03/18 05:06:25;;;;;;;13.33;1.90;;;;;;;12.54;nan;99670.38;5004098;28;20580;-76
2023/03/18 05:08:51;;;;;;;13.43;1.45;;;;;;;12.57;nan;99665.00;5000919;28;20022;-76
2023/03/18 05:11:17;;;;;;;17.40;1.63;;;;;;;12.61;nan;99657.91;5002090;28;20036;-76
2023/03/18 05:13:43;;;;;;;11.83;1.17;;;;;;;12.51;nan;99667.78;4999672;28;20281;-76
2023/03/18 05:16:08;;;;;;;15.95;1.80;;;;;;;12.52;nan;99661.59;5000669;28;20027;-77
2023/03/18 05:18:34;;;;;;;15.97;1.50;;;;;;;12.48;nan;99662.59;5000474;28;20647;-76
2023/03/18 05:21:00;;;;;;;14.73;1.70;;;;;;;12.50;nan;99671.34;5000578;28;20042;-76
2023/03/18 05:23:26;;;;;;;12.00;1.80;;;;;;;12.48;nan;99673.16;5000669;28;20038;-76
2023/03/18 05:25:51;;;;;;;10.82;1.70;;;;;;;12.54;nan;99680.94;4995994;28;20038;-76
2023/03/18 05:28:17;;;;;;;15.53;1.60;;;;;;;12.58;nan;99679.09;4981107;28;20037;-77
2023/03/18 05:30:42;;;;;;;13.17;1.43;;;;;;;12.53;nan;99686.22;5008562;28;20037;-77
2023/03/18 05:33:08;;;;;;;9.52;1.35;;;;;;;12.59;nan;99691.41;4999352;28;20085;-77
2023/03/18 05:35:33;;;;;;;15.53;2.23;;;;;;;12.59;nan;99691.41;5000183;28;20452;-77
2023/03/18 05:37:58;;;;;;;16.93;1.63;;;;;;;12.60;nan;99690.50;5000458;28;20034;-77
2023/03/18 05:40:24;;;;;;;13.13;1.70;;;;;;;12.57;nan;99677.38;5001037;28;20030;-76
2023/03/18 05:42:49;;;;;;;10.87;1.33;;;;;;;12.61;nan;99690.44;5001412;28;20054;-77
2023/03/18 05:45:15;;;;;;;16.60;1.67;;;;;;;12.64;nan;99690.38;4999256;28;20270;-77
2023/03/18 05:47:40;;;;;;;10.60;1.33;;;;;;;12.59;nan;99701.97;5000303;28;20399;-77
2023/03/18 05:50:06;;;;;;;12.50;1.40;;;;;;;12.61;nan;99703.66;5004546;28;20399;-77
2023/03/18 05:52:31;;;;;;;9.30;1.30;;;;;;;12.60;nan;99704.56;4987890;28;20106;-77
2023/03/18 05:54:56;;;;;;;14.80;1.50;;;;;;;12.64;nan;99706.22;4988602;28;20475;-77
2023/03/18 05:57:22;;;;;;;13.67;1.30;;;;;;;12.65;nan;99704.47;5008733;28;20038;-77
2023/03/18 05:59:47;;;;;;;10.93;1.42;;;;;;;12.66;nan;99694.75;4998245;28;20502;-77
2023/03/18 06:02:13;;;;;;;11.77;1.60;;;;;;;12.66;nan;99692.13;4989361;28;20066;-77
2023/03/18 06:04:39;;;;;;;15.83;1.47;;;;;;;12.66;nan;99694.75;4994731;28;20034;-77
2023/03/18 06:07:05;;;;;;;15.18;1.73;;;;;;;12.64;nan;99690.38;4999956;28;20022;-77
2023/03/18 06:09:32;;;;;;;13.17;0.97;;;;;;;12.59;nan;99692.25;4996160;28;20069;-77
2023/03/18 06:11:57;;;;;;;14.43;1.48;;;;;;;12.62;nan;99693.97;5004750;28;20034;-77
2023/03/18 06:14:28;;;;;;;10.40;1.48;;;;;;;12.59;nan;99684.31;4999737;28;20450;-77
2023/03/18 06:16:54;;;;;;;10.18;1.60;;;;;;;12.57;nan;99694.06;4999669;28;20030;-77
2023/03/18 06:19:20;;;;;;;8.73;1.17;;;;;;;12.53;nan;99687.09;4999604;28;20058;-77
2023/03/18 06:21:46;;;;;;;13.63;1.60;;;;;;;12.54;nan;99687.97;4988576;28;20035;-77
2023/03/18 06:24:14;;;;;;;12.13;1.58;;;;;;;12.55;nan;99684.44;4978659;28;20081;-77
2023/03/18 06:26:40;;;;;;;14.88;1.38;;;;;;;12.53;nan;99684.47;4980191;28;20046;-77
2023/03/18 06:29:06;;;;;;;9.82;1.20;;;;;;;12.53;nan;99681.81;4986603;28;20022;-77
2023/03/18 06:31:33;;;;;;;16.13;1.53;;;;;;;12.52;nan;99681.84;5001972;28;20030;-77
2023/03/18 06:33:58;;;;;;;11.52;1.75;;;;;;;12.53;nan;99688.88;4997828;28;20462;-77
2023/03/18 06:36:24;;;;;;;11.15;1.40;;;;;;;12.48;nan;99689.00;4998141;28;20034;-77
2023/03/18 06:38:49;;;;;;;10.67;1.50;;;;;;;12.43;nan;99691.72;4997762;28;20022;-77
2023/03/18 06:41:15;;;;;;;16.67;1.60;;;;;;;12.44;nan;99684.69;5001117;28;20062;-77
2023/03/18 06:43:42;;;;;;;14.70;1.65;;;;;;;12.41;nan;99688.25;4997782;28;20030;-77
2023/03/18 06:46:07;;;;;;;9.57;1.50;;;;;;;12.43;nan;99685.59;4999320;28;20034;-77
2023/03/18 06:48:34;;;;;;;9.27;1.30;;;;;;;12.42;nan;99683.81;4999066;28;20033;-77
2023/03/18 06:50:59;;;;;;;14.23;1.40;;;;;;;12.40;nan;99683.88;5003875;28;20041;-77
2023/03/18 06:53:26;;;;;;;15.27;1.83;;;;;;;12.41;nan;99680.31;4998857;28;20038;-77
2023/03/18 06:55:52;;;;;;;11.93;1.40;;;;;;;12.38;nan;99682.16;4999550;28;20109;-77
2023/03/18 06:58:18;;;;;;;11.65;1.38;;;;;;;12.40;nan;99681.22;4999069;28;20030;-77
2023/03/18 07:00:44;;;;;;;16.53;1.60;;;;;;;12.47;nan;99687.25;4997400;28;20026;-77
2023/03/18 07:03:10;;;;;;;15.63;1.77;;;;;;;12.51;nan;99683.63;4980187;28;20105;-77
2023/03/18 07:05:35;;;;;;;14.23;1.58;;;;;;;12.58;nan;99694.94;5003256;28;20030;-77
2023/03/18 07:08:01;;;;;;;12.20;2.17;;;;;;;12.64;nan;99698.28;4998534;28;20052;-77
2023/03/18 07:10:29;;;;;;;15.30;1.90;;;;;;;12.71;nan;99700.81;5004765;28;20068;-77
2023/03/18 07:12:55;;;;;;;13.75;1.40;;;;;;;12.80;nan;99705.91;4999923;28;20033;-77
2023/03/18 07:15:22;;;;;;;15.15;1.63;;;;;;;12.86;nan;99696.97;4998606;28;20034;-77
2023/03/18 07:17:49;;;;;;;11.57;1.65;;;;;;;12.99;nan;99694.91;4993560;28;20498;-77
2023/03/18 07:20:15;;;;;;;12.15;1.70;;;;;;;13.17;nan;99693.59;4977868;28;20038;-77
2023/03/18 07:22:42;;;;;;;18.40;1.83;;;;;;;13.21;nan;99704.06;4978839;28;20487;-77
2023/03/18 07:25:09;;;;;;;15.27;1.60;;;;;;;13.19;nan;99695.31;4979224;28;20027;-77
2023/03/18 07:27:34;;;;;;;15.40;2.13;;;;;;;13.25;nan;99690.78;4979120;28;20035;-77
2023/03/18 07:30:01;;;;;;;11.75;1.83;;;;;;;13.39;nan;99690.44;4996479;28;20376;-77
2023/03/18 07:32:28;;;;;;;9.47;1.73;;;;;;;13.38;nan;99694.84;4998473;28;20022;-77
2023/03/18 07:34:54;;;;;;;13.73;1.70;;;;;;;13.55;nan;99690.94;4998338;28;20027;-77
2023/03/18 07:37:19;;;;;;;10.10;1.75;;;;;;;13.53;nan;99684.81;4998294;28;20073;-77
2023/03/18 07:39:45;;;;;;;9.47;1.70;;;;;;;13.58;nan;99698.78;4997041;28;20387;-78
2023/03/18 07:42:11;;;;;;;11.13;1.83;;;;;;;13.66;nan;99694.19;4998657;28;20030;-78
2023/03/18 07:44:37;;;;;;;12.07;1.70;;;;;;;13.75;nan;99701.03;4996801;28;20018;-78
2023/03/18 07:47:03;;;;;;;13.20;1.63;;;;;;;13.70;nan;99701.16;4996643;28;20531;-78
2023/03/18 07:49:29;;;;;;;13.25;1.50;;;;;;;13.85;nan;99706.91;5000330;28;20076;-78
2023/03/18 07:51:55;;;;;;;13.55;1.60;;;;;;;14.25;nan;99710.28;4999271;28;20030;-78
2023/03/18 07:54:22;;;;;;;13.15;2.15;;;;;;;14.95;nan;99705.59;4997790;28;20566;-78
2023/03/18 07:56:48;;;;;;;8.27;1.40;;;;;;;16.15;nan;99699.84;4996999;28;20038;-78
2023/03/18 07:59:14;;;;;;;10.32;1.50;;;;;;;17.20;nan;99695.84;4994963;28;20027;-78
2023/03/18 08:01:40;;;;;;;8.65;1.48;;;;;;;17.54;nan;99698.91;4992472;28;20566;-78
2023/03/18 08:04:05;;;;;;;8.60;1.40;;;;;;;18.14;nan;99699.94;4989144;28;20478;-77
2023/03/18 08:06:31;;;;;;;13.27;1.40;;;;;;;18.32;nan;99692.91;4998584;28;20034;-77
2023/03/18 08:08:57;;;;;;;12.03;1.90;;;;;;;18.65;nan;99698.50;4997464;28;20033;-78
2023/03/18 08:11:23;;;;;;;8.05;1.40;;;;;;;18.49;nan;99695.69;5004960;28;20034;-79
2023/03/18 08:13:49;;;;;;;13.37;1.90;;;;;;;18.93;nan;99699.00;5002479;28;20041;-79
2023/03/18 08:16:15;;;;;;;8.73;1.30;;;;;;;19.00;nan;99696.94;4979360;28;20113;-79
2023/03/18 08:18:41;;;;;;;8.95;1.40;;;;;;;19.63;nan;99700.94;4985608;28;20050;-79
2023/03/18 08:21:06;;;;;;;9.93;1.73;;;;;;;20.56;nan;99687.25;4979481;28;20506;-78
2023/03/18 08:23:32;;;;;;;8.80;1.52;;;;;;;21.82;nan;99685.47;4983499;28;20157;-76
2023/03/18 08:25:58;;;;;;;7.23;1.70;;;;;;;22.96;nan;99679.31;4984317;28;20046;-77
2023/03/18 08:28:24;;;;;;;9.07;1.60;;;;;;;24.12;nan;99676.97;4980871;28;20038;-77
2023/03/18 08:30:58;;;;;;;8.43;1.83;;;;;;;24.58;nan;99672.81;5004437;28;20113;-79
2023/03/18 08:33:46;;;;;;;8.20;2.07;;;;;;;25.27;nan;99667.84;4999072;28;20034;-78
2023/03/18 08:36:15;;;;;;;10.93;2.00;;;;;;;24.69;nan;99692.69;4998556;28;20414;-80
2023/03/18 08:38:40;;;;;;;8.90;2.05;;;;;;;25.45;nan;99677.25;4998588;28;20046;-77
2023/03/18 08:41:06;;;;;;;8.10;1.97;;;;;;;26.03;nan;99687.22;4997030;28;20085;-78
2023/03/18 08:43:35;;;;;;;10.67;2.20;;;;;;;26.44;nan;99689.50;5004100;28;20033;-78
2023/03/18 08:46:01;;;;;;;12.23;2.30;;;;;;;26.78;nan;99690.31;4996629;28;20038;-85
2023/03/18 08:48:27;;;;;;;12.23;2.67;;;;;;;27.46;nan;99691.97;4998733;28;20074;-82
2023/03/18 08:50:53;;;;;;;10.83;1.90;;;;;;;28.70;nan;99694.03;5005725;28;20261;-87
2023/03/18 08:53:20;;;;;;;9.77;2.17;;;;;;;29.79;nan;99690.47;5000244;28;20483;-87
2023/03/18 08:55:46;;;;;;;8.43;2.38;;;;;;;29.75;nan;99691.72;4998585;28;20035;-80
2023/03/18 08:58:16;;;;;;;7.57;1.73;;;;;;;29.51;nan;99693.03;5002926;28;20018;-81
2023/03/18 09:00:42;;;;;;;10.33;1.80;;;;;;;28.16;nan;99702.31;4987173;28;20038;-85
2023/03/18 09:03:08;;;;;;;11.80;2.08;;;;;;;27.06;nan;99706.13;4995277;28;20043;-81
2023/03/18 09:05:34;;;;;;;6.50;2.03;;;;;;;26.46;nan;99707.25;5002420;28;20034;-80
2023/03/18 09:08:00;;;;;;;10.40;2.42;;;;;;;26.89;nan;99708.38;4999098;28;20030;-79
2023/03/18 09:10:27;;;;;;;8.93;2.33;;;;;;;27.36;nan;99701.84;5010448;28;20037;-80
2023/03/18 09:12:52;;;;;;;10.05;2.22;;;;;;;27.99;nan;99689.41;5004511;28;20693;-86
2023/03/18 09:15:19;;;;;;;12.00;2.10;;;;;;;26.89;nan;99694.88;4998159;28;20069;-78
2023/03/18 09:17:46;;;;;;;9.13;2.10;;;;;;;26.26;nan;99695.38;4997342;28;20445;-77
2023/03/18 09:20:14;;;;;;;9.00;1.70;;;;;;;25.59;nan;99695.09;4998543;28;20053;-82
2023/03/18 09:22:41;;;;;;;8.85;1.70;;;;;;;24.69;nan;99696.25;4995303;28;20386;-86
2023/03/18 09:25:07;;;;;;;9.25;1.83;;;;;;;24.46;nan;99695.19;4983860;28;20042;-84
2023/03/18 09:27:36;;;;;;;10.70;1.95;;;;;;;24.26;nan;99710.09;4992845;28;20090;-85
2023/03/18 09:30:02;;;;;;;12.32;3.25;;;;;;;23.98;nan;99709.28;4995765;28;20034;-83
2023/03/18 09:32:31;;;;;;;12.87;1.97;;;;;;;24.56;nan;99706.16;5000995;28;20022;-80
2023/03/18 09:34:56;;;;;;;10.52;1.70;;;;;;;24.61;nan;99699.50;5000093;28;20089;-80
2023/03/18 09:37:22;;;;;;;12.43;1.97;;;;;;;24.56;nan;99712.44;5000841;28;20039;-81
2023/03/18 09:39:47;;;;;;;11.33;2.33;;;;;;;24.59;nan;99705.94;4987030;28;20297;-82
2023/03/18 09:42:22;;;;;;;11.60;2.23;;;;;;;25.12;nan;99697.66;5004417;28;20033;-73
2023/03/18 09:45:01;;;;;;;10.32;1.98;;;;;;;25.14;nan;99703.78;4998134;28;20030;-79
2023/03/18 09:47:51;;;;;;;10.23;1.63;;;;;;;24.64;nan;99688.50;5005441;28;20030;-76
2023/03/18 09:50:53;;;;;;;9.77;1.70;;;;;;;24.33;nan;99700.59;5007373;28;20084;-73
2023/03/18 09:53:30;;;;;;;12.65;2.35;;;;;;;25.63;nan;99706.47;5000984;28;20450;-75
2023/03/18 09:56:00;;;;;;;9.40;2.17;;;;;;;26.45;nan;99705.53;5000948;28;20478;-73
2023/03/18 09:58:26;;;;;;;13.00;2.67;;;;;;;27.10;nan;99696.75;4998977;28;20037;-73
2023/03/18 10:00:59;;;;;;;12.27;2.30;;;;;;;27.79;nan;99687.41;4995510;28;20038;-73
2023/03/18 10:03:45;;;;;;;9.40;2.20;;;;;;;28.27;nan;99682.44;4992970;28;20043;-72
2023/03/18 10:06:22;;;;;;;9.93;2.22;;;;;;;29.14;nan;99677.44;5001040;28;20042;-72
2023/03/18 10:08:56;;;;;;;11.43;2.40;;;;;;;29.42;nan;99685.75;4984744;28;20030;-72
2023/03/18 10:11:31;;;;;;;8.83;2.30;;;;;;;29.34;nan;99681.00;4996373;28;20109;-73
2023/03/18 10:14:23;;;;;;;8.30;2.10;;;;;;;28.89;nan;99682.41;4999705;28;20030;-75
2023/03/18 10:17:16;;;;;;;13.30;3.13;;;;;;;28.99;nan;99685.13;4993471;28;20088;-73
2023/03/18 10:20:03;;;;;;;14.77;5.18;;;;;;;29.28;nan;99680.72;4999586;28;20057;-73
2023/03/18 10:22:53;;;;;;;13.35;2.55;;;;;;;29.67;nan;99688.88;4999283;28;20487;-73
2023/03/18 10:25:28;;;;;;;11.73;2.33;;;;;;;29.55;nan;99673.78;5001060;28;20034;-75
2023/03/18 10:27:59;;;;;;;8.55;1.95;;;;;;;29.97;nan;99673.41;5000164;28;20063;-73
2023/03/18 10:30:47;;;;;;;9.20;2.20;;;;;;;29.69;nan;99670.59;5006648;28;20053;-73
2023/03/18 10:33:40;;;;;;;8.68;1.70;;;;;;;29.33;nan;99671.16;4998412;28;20054;-73
2023/03/18 10:36:21;;;;;;;10.32;2.50;;;;;;;29.45;nan;99671.06;4999797;28;20046;-73
2023/03/18 10:38:53;;;;;;;9.57;1.97;;;;;;;29.04;nan;99676.56;4995047;28;20039;-73
2023/03/18 10:41:21;;;;;;;7.30;1.50;;;;;;;27.88;nan;99687.63;4988975;28;20026;-73
2023/03/18 10:43:49;;;;;;;10.27;2.22;;;;;;;26.87;nan;99696.81;4999535;28;20026;-73
2023/03/18 10:46:18;;;;;;;9.35;2.38;;;;;;;26.63;nan;99689.69;4999087;28;20065;-73
2023/03/18 10:48:53;;;;;;;8.20;2.10;;;;;;;27.06;nan;99692.59;4998930;28;20436;-74
2023/03/18 10:52:00;;;;;;;7.60;2.13;;;;;;;27.13;nan;99690.25;5004249;28;20026;-73
2023/03/18 10:54:31;;;;;;;8.38;1.90;;;;;;;27.89;nan;99681.22;4993101;28;20558;-73
2023/03/18 10:56:56;;;;;;;8.90;2.25;;;;;;;28.80;nan;99677.78;4999333;28;20045;-74
2023/03/18 10:59:44;;;;;;;9.27;2.33;;;;;;;29.25;nan;99689.13;4999244;28;20041;-74
2023/03/18 11:02:33;;;;;;;9.88;2.05;;;;;;;28.61;nan;99693.00;5006851;28;20056;-74
2023/03/18 11:05:06;;;;;;;7.90;2.10;;;;;;;28.41;nan;99696.63;4999275;28;20572;-74
2023/03/18 11:07:32;;;;;;;7.35;1.77;;;;;;;28.74;nan;99681.03;4999892;28;20026;-73
2023/03/18 11:10:32;;;;;;;10.82;2.50;;;;;;;29.23;nan;99671.16;5002183;28;20120;-78
2023/03/18 11:13:01;;;;;;;12.60;3.23;;;;;;;30.12;nan;99670.25;4999302;28;20022;-76
2023/03/18 11:15:32;;;;;;;9.98;2.70;;;;;;;30.30;nan;99679.34;5003366;28;20030;-74
2023/03/18 11:18:01;;;;;;;9.25;2.30;;;;;;;30.74;nan;99678.72;5006355;28;20053;-76
2023/03/18 11:20:43;;;;;;;9.23;2.15;;;;;;;31.05;nan;99678.38;5004794;28;20019;-74
2023/03/18 11:23:55;;;;;;;11.73;2.60;;;;;;;31.27;nan;99680.84;5009439;28;20045;-77
2023/03/18 11:26:23;;;;;;;8.67;2.30;;;;;;;31.44;nan;99671.78;4987167;28;20061;-84
2023/03/18 11:28:53;;;;;;;9.27;3.28;;;;;;;31.69;nan;99668.44;5000334;28;20034;-88
2023/03/18 11:31:19;;;;;;;11.23;3.17;;;;;;;31.43;nan;99672.81;5000805;28;20057;-82
2023/03/18 11:33:44;;;;;;;11.27;2.67;;;;;;;31.62;nan;99674.53;5001201;28;20057;-85
2023/03/18 11:36:19;;;;;;;11.07;2.93;;;;;;;31.63;nan;99665.34;4999190;28;20085;-80
2023/03/18 11:39:03;;;;;;;9.60;2.47;;;;;;;31.71;nan;99661.84;5000119;28;20061;-82
2023/03/18 11:41:47;;;;;;;12.05;3.08;;;;;;;31.71;nan;99661.84;5006398;28;20022;-88
2023/03/18 11:44:31;;;;;;;9.60;2.53;;;;;;;30.94;nan;99665.84;4991059;28;20018;-78
2023/03/18 11:47:33;;;;;;;9.70;1.90;;;;;;;28.99;nan;99678.84;4990750;28;20705;-78
2023/03/18 11:50:19;;;;;;;9.17;1.77;;;;;;;26.85;nan;99690.69;4997363;28;20444;-81
2023/03/18 14:11:43;;;;;;;10.55;2.40;;;;;;;19.29;46.36;99618.09;5092687;27;20419;-65